Time;durP1;ratioP1;P1;durP2;ratioP2;P2;SDS_P1;SDS_P2;PMS_P1;PMS_P2;Temp;Humidity;BMP_temperature;BMP_pressure;BME280_temperature;BME280_humidity;BME280_pressure;Samples;Min_cycle;Max_cycle;Signal;HPM_P1;HPM_P2
2022/06/17 00:01:26;;;;;;;5.63;2.33;;;;;;;23.79;42.24;102248.03;5072777;28;20028;-72
2022/06/17 00:03:52;;;;;;;5.38;2.40;;;;;;;23.79;42.28;102248.03;5073730;28;20028;-72
2022/06/17 00:06:20;;;;;;;4.97;2.47;;;;;;;23.78;42.21;102248.97;5073131;28;20066;-72
2022/06/17 00:08:49;;;;;;;4.47;2.42;;;;;;;23.77;42.42;102252.63;5072641;28;20028;-72
2022/06/17 00:11:26;;;;;;;4.75;2.42;;;;;;;23.78;42.02;102246.31;5073164;28;20036;-72
2022/06/17 00:13:52;;;;;;;4.85;2.40;;;;;;;23.78;42.47;102246.31;5073425;28;20392;-72
2022/06/17 00:16:20;;;;;;;5.03;2.55;;;;;;;23.76;42.13;102242.94;5072354;28;20027;-72
2022/06/17 00:18:45;;;;;;;5.28;2.75;;;;;;;23.76;42.45;102250.94;5073454;28;20032;-72
2022/06/17 00:21:25;;;;;;;5.93;2.80;;;;;;;23.75;42.48;102258.09;5073040;28;20097;-72
2022/06/17 00:23:50;;;;;;;4.35;2.58;;;;;;;23.74;42.20;102261.72;5072251;28;20035;-72
2022/06/17 00:26:16;;;;;;;4.93;2.70;;;;;;;23.74;42.20;102259.06;5072589;28;20045;-72
2022/06/17 00:28:42;;;;;;;5.90;2.40;;;;;;;23.73;42.52;102262.69;5072901;28;20055;-72
2022/06/17 00:31:07;;;;;;;7.00;2.72;;;;;;;23.74;42.58;102269.69;5072308;28;20028;-72
2022/06/17 00:33:32;;;;;;;4.25;2.30;;;;;;;23.71;42.15;102252.16;5072042;28;20039;-72
2022/06/17 00:35:58;;;;;;;5.07;2.70;;;;;;;23.71;42.37;102257.47;5072831;28;20096;-72
2022/06/17 00:38:28;;;;;;;5.65;2.78;;;;;;;23.70;42.36;102257.59;5071799;28;20778;-72
2022/06/17 00:40:54;;;;;;;5.63;2.70;;;;;;;23.70;42.47;102271.78;5072517;28;20491;-72
2022/06/17 00:43:29;;;;;;;4.80;2.42;;;;;;;23.70;42.41;102270.91;5072680;28;20107;-72
2022/06/17 00:46:07;;;;;;;4.32;2.58;;;;;;;23.69;42.29;102270.06;5072704;28;20468;-72
2022/06/17 00:48:42;;;;;;;4.45;2.40;;;;;;;23.69;42.24;102269.25;5072540;28;20115;-72
2022/06/17 00:51:19;;;;;;;6.20;2.75;;;;;;;23.69;42.40;102266.59;5071948;28;20031;-72
2022/06/17 00:53:50;;;;;;;5.18;2.33;;;;;;;23.68;42.57;102264.88;5072927;28;20021;-72
2022/06/17 00:56:24;;;;;;;4.60;2.50;;;;;;;23.67;42.43;102253.41;5072582;28;20035;-72
2022/06/17 00:58:55;;;;;;;4.00;2.40;;;;;;;23.67;42.44;102247.22;5072006;28;20035;-72
2022/06/17 01:01:23;;;;;;;5.60;2.47;;;;;;;23.65;42.41;102250.00;5072420;28;20048;-72
2022/06/17 01:03:55;;;;;;;4.40;2.50;;;;;;;23.65;42.54;102257.16;5072585;28;20036;-72
2022/06/17 01:06:25;;;;;;;4.25;2.53;;;;;;;23.64;42.36;102261.63;5071587;28;20528;-72
2022/06/17 01:11:41;;;;;;;3.97;2.55;;;;;;;23.64;42.51;102260.78;5071847;28;20090;-72
2022/06/17 01:14:17;;;;;;;3.80;2.35;;;;;;;23.63;42.91;102254.63;5072468;28;20407;-72
2022/06/17 01:16:44;;;;;;;4.63;2.70;;;;;;;23.60;42.46;102249.53;5072724;28;20032;-72
2022/06/17 01:19:22;;;;;;;5.10;2.70;;;;;;;23.62;42.50;102257.41;5071096;28;20037;-72
2022/06/17 01:22:26;;;;;;;5.15;2.40;;;;;;;23.60;42.53;102259.34;5072559;28;20051;-72
2022/06/17 01:25:31;;;;;;;3.90;2.45;;;;;;;23.61;42.77;102258.41;5031129;28;20062;-72
2022/06/17 01:28:12;;;;;;;4.78;2.78;;;;;;;23.60;42.35;102256.69;5071633;28;20044;-72
2022/06/17 01:30:51;;;;;;;3.88;2.60;;;;;;;23.58;42.45;102251.50;5072315;28;20029;-72
2022/06/17 01:33:35;;;;;;;4.88;2.47;;;;;;;23.58;42.47;102250.66;5071591;28;20024;-72
2022/06/17 01:36:10;;;;;;;5.53;2.67;;;;;;;23.58;42.78;102253.31;5072599;28;20021;-72
2022/06/17 01:38:38;;;;;;;5.20;2.67;;;;;;;23.57;42.84;102254.28;5072380;28;20040;-72
2022/06/17 01:41:04;;;;;;;4.03;2.40;;;;;;;23.57;42.78;102254.28;5071336;28;20357;-72
2022/06/17 01:43:37;;;;;;;6.28;2.88;;;;;;;23.55;42.75;102257.06;5072178;28;20029;-72
2022/06/17 01:46:09;;;;;;;4.68;2.65;;;;;;;23.55;42.95;102251.75;5072478;28;20052;-72
2022/06/17 01:48:41;;;;;;;4.32;2.22;;;;;;;23.55;42.81;102257.06;5071672;28;20017;-72
2022/06/17 01:51:08;;;;;;;5.45;2.75;;;;;;;23.55;42.63;102257.06;5072358;28;20035;-72
2022/06/17 01:53:40;;;;;;;4.38;2.40;;;;;;;23.54;43.02;102250.91;5073782;28;20028;-72
2022/06/17 01:56:14;;;;;;;4.22;2.50;;;;;;;23.53;42.70;102256.38;5075875;28;20066;-72
2022/06/17 01:58:45;;;;;;;4.10;2.60;;;;;;;23.52;43.08;102259.97;5076363;28;20100;-72
2022/06/17 02:01:12;;;;;;;4.47;2.60;;;;;;;23.52;42.86;102260.81;5075050;28;20055;-72
2022/06/17 02:03:44;;;;;;;4.50;2.60;;;;;;;23.52;43.12;102260.81;5075837;28;20103;-72
2022/06/17 02:06:20;;;;;;;4.55;2.65;;;;;;;23.52;43.25;102254.66;5075461;28;20025;-72
2022/06/17 02:08:45;;;;;;;4.70;2.80;;;;;;;23.50;42.58;102248.63;5075226;28;20086;-72
2022/06/17 02:11:11;;;;;;;4.38;2.60;;;;;;;23.51;42.92;102252.97;5075451;28;20464;-72
2022/06/17 02:13:36;;;;;;;4.88;2.65;;;;;;;23.50;42.97;102251.28;5075705;28;20383;-72
2022/06/17 02:16:08;;;;;;;4.78;2.50;;;;;;;23.49;42.75;102253.09;5074921;28;20078;-72
2022/06/17 02:18:38;;;;;;;4.75;2.78;;;;;;;23.48;43.08;102248.75;5075456;28;20380;-72
2022/06/17 02:21:09;;;;;;;5.25;2.60;;;;;;;23.48;42.84;102256.75;5075685;28;20107;-72
2022/06/17 02:23:34;;;;;;;5.25;2.80;;;;;;;23.48;42.88;102256.75;5074680;28;20052;-72
2022/06/17 02:26:00;;;;;;;5.25;2.78;;;;;;;23.48;42.78;102247.88;5075502;28;20062;-72
2022/06/17 02:28:29;;;;;;;4.78;2.78;;;;;;;23.46;42.84;102240.03;5074896;28;20131;-72
2022/06/17 02:31:02;;;;;;;4.18;2.50;;;;;;;23.47;42.82;102248.88;5074586;28;20025;-72
2022/06/17 02:33:28;;;;;;;5.88;2.72;;;;;;;23.46;43.15;102250.69;5075117;28;20426;-72
2022/06/17 02:36:03;;;;;;;6.03;2.78;;;;;;;23.46;42.93;102249.84;5075053;28;20051;-72
2022/06/17 02:38:32;;;;;;;4.28;2.70;;;;;;;23.45;43.10;102240.16;5075239;28;20143;-72
2022/06/17 02:41:05;;;;;;;5.25;2.90;;;;;;;23.44;42.92;102247.31;5075304;28;20021;-72
2022/06/17 02:43:40;;;;;;;4.23;2.40;;;;;;;23.44;43.25;102241.16;5074153;28;20024;-72
2022/06/17 02:46:11;;;;;;;3.97;2.42;;;;;;;23.43;43.18;102242.13;5074988;28;20348;-72
2022/06/17 02:48:52;;;;;;;5.40;2.88;;;;;;;23.42;43.20;102245.75;5075007;28;20464;-72
2022/06/17 02:51:17;;;;;;;4.80;2.60;;;;;;;23.41;43.09;102244.91;5074135;28;20032;-72
2022/06/17 02:53:43;;;;;;;4.60;2.72;;;;;;;23.41;43.23;102246.72;5074901;28;20414;-72
2022/06/17 02:56:16;;;;;;;5.70;2.70;;;;;;;23.41;43.19;102247.56;5074464;28;20028;-72
2022/06/17 02:59:09;;;;;;;4.10;2.53;;;;;;;23.39;43.15;102244.19;5074277;28;20024;-72
2022/06/17 03:01:36;;;;;;;5.82;2.40;;;;;;;23.39;43.15;102246.84;5075015;28;20107;-72
2022/06/17 03:04:10;;;;;;;4.55;2.60;;;;;;;23.39;43.13;102249.50;5073960;28;20383;-73
2022/06/17 03:06:45;;;;;;;;;;;;;;;23.38;43.20;102250.47;5075106;28;20060;-72
2022/06/17 03:09:19;;;;;;;4.18;2.40;;;;;;;23.38;43.09;102239.00;5074289;28;20302;-72
2022/06/17 03:11:49;;;;;;;4.13;2.50;;;;;;;23.36;43.16;102242.63;5073824;28;20036;-72
2022/06/17 03:14:15;;;;;;;5.43;2.42;;;;;;;23.36;43.11;102244.44;5074368;28;20049;-73
2022/06/17 03:16:42;;;;;;;4.30;2.70;;;;;;;23.35;43.08;102248.06;5075232;28;20453;-72
2022/06/17 03:19:09;;;;;;;5.03;2.78;;;;;;;23.35;43.19;102245.41;5074564;28;20024;-73
2022/06/17 03:21:34;;;;;;;4.07;2.75;;;;;;;23.35;43.12;102242.75;5077650;28;20026;-73
2022/06/17 03:24:11;;;;;;;4.82;2.88;;;;;;;23.34;42.96;102246.38;5077312;28;20396;-72
2022/06/17 03:26:48;;;;;;;4.10;2.60;;;;;;;23.33;43.06;102248.19;5074901;28;20032;-72
2022/06/17 03:29:17;;;;;;;5.35;2.70;;;;;;;23.32;43.13;102257.16;5074152;28;20033;-72
2022/06/17 03:32:06;;;;;;;4.70;2.70;;;;;;;23.32;43.13;102261.59;5074463;28;20068;-72
2022/06/17 03:34:40;;;;;;;6.60;2.90;;;;;;;23.32;43.03;102265.13;5062125;28;20395;-72
2022/06/17 03:37:11;;;;;;;5.25;2.92;;;;;;;23.31;42.99;102273.22;5074273;28;20043;-72
2022/06/17 03:39:44;;;;;;;6.65;2.40;;;;;;;23.31;43.17;102276.72;5073422;28;20028;-72
2022/06/17 03:42:26;;;;;;;4.20;2.50;;;;;;;23.31;43.29;102278.56;5073693;28;20028;-72
2022/06/17 03:45:02;;;;;;;4.72;2.58;;;;;;;23.30;43.06;102285.66;5074087;28;20024;-72
2022/06/17 03:47:48;;;;;;;4.32;2.45;;;;;;;23.31;42.99;102287.38;5072871;28;20016;-72
2022/06/17 03:50:23;;;;;;;4.00;2.50;;;;;;;23.30;43.11;102296.31;5073319;28;20484;-72
2022/06/17 03:52:58;;;;;;;5.60;2.75;;;;;;;23.31;43.23;102297.16;5073927;28;20465;-72
2022/06/17 03:55:23;;;;;;;4.97;2.47;;;;;;;23.29;43.29;102289.31;5072698;28;20064;-72
2022/06/17 03:57:52;;;;;;;5.78;2.53;;;;;;;23.28;42.83;102290.28;5073723;28;20048;-72
2022/06/17 04:00:39;;;;;;;3.92;2.40;;;;;;;23.29;43.22;102286.66;5072775;28;20468;-72
2022/06/17 04:03:10;;;;;;;6.32;2.97;;;;;;;23.27;43.00;102277.09;5073737;28;20123;-72
2022/06/17 04:05:37;;;;;;;6.78;2.70;;;;;;;23.27;43.10;102283.25;5073918;28;20027;-72
2022/06/17 04:08:03;;;;;;;4.43;2.40;;;;;;;23.26;42.96;102278.91;5072851;28;20024;-72
2022/06/17 04:10:30;;;;;;;4.88;2.67;;;;;;;23.26;43.09;102284.25;5073079;28;20043;-72
2022/06/17 04:12:56;;;;;;;6.22;2.72;;;;;;;23.26;43.08;102278.91;5073369;28;20082;-72
2022/06/17 04:15:30;;;;;;;6.50;2.58;;;;;;;23.26;43.22;102283.41;5071713;28;20020;-72
2022/06/17 04:17:55;;;;;;;4.47;2.42;;;;;;;23.25;42.89;102281.69;5073173;28;20453;-72
2022/06/17 04:20:36;;;;;;;7.22;2.90;;;;;;;23.25;43.02;102281.69;5073159;28;20032;-72
2022/06/17 04:23:16;;;;;;;4.90;2.50;;;;;;;23.25;43.14;102274.56;5072713;28;20020;-72
2022/06/17 04:25:51;;;;;;;5.10;2.90;;;;;;;23.25;43.31;102271.06;5073148;28;20608;-72
2022/06/17 04:28:24;;;;;;;5.05;2.50;;;;;;;23.24;43.15;102259.59;5072834;28;20056;-72
2022/06/17 04:30:56;;;;;;;6.13;2.70;;;;;;;23.24;43.43;102266.72;5072887;28;20060;-72
2022/06/17 04:33:26;;;;;;;5.13;2.63;;;;;;;23.24;43.21;102266.72;5072836;28;20032;-71
2022/06/17 04:35:58;;;;;;;4.53;2.35;;;;;;;23.23;43.31;102268.53;5072349;28;20036;-72
2022/06/17 04:38:24;;;;;;;5.28;2.67;;;;;;;23.22;43.03;102258.84;5071935;28;20040;-72
2022/06/17 04:40:54;;;;;;;8.02;2.80;;;;;;;23.22;43.42;102266.00;5073259;28;20169;-72
2022/06/17 04:43:36;;;;;;;6.72;2.80;;;;;;;23.22;43.32;102260.69;5071980;28;20063;-71
2022/06/17 04:46:08;;;;;;;4.85;2.40;;;;;;;23.22;42.96;102247.38;5072975;28;20021;-71
2022/06/17 04:48:34;;;;;;;5.00;2.85;;;;;;;23.21;43.30;102254.53;5072700;28;20420;-69
2022/06/17 04:51:01;;;;;;;7.20;2.92;;;;;;;23.22;43.38;102247.38;5072157;28;20059;-69
2022/06/17 04:53:28;;;;;;;5.65;2.83;;;;;;;23.22;43.11;102234.09;5072589;28;20442;-69
2022/06/17 04:55:53;;;;;;;4.75;2.40;;;;;;;23.21;43.17;102240.34;5072846;28;20051;-69
2022/06/17 04:58:21;;;;;;;5.37;2.57;;;;;;;23.20;43.37;102244.84;5071618;28;20460;-69
2022/06/17 05:00:51;;;;;;;5.65;2.50;;;;;;;23.21;43.31;102227.94;5072531;28;20436;-70
2022/06/17 05:03:17;;;;;;;9.18;2.97;;;;;;;23.20;43.27;102234.22;5072168;28;20024;-70
2022/06/17 05:05:47;;;;;;;5.45;2.58;;;;;;;23.20;43.33;102228.06;5072073;28;20021;-70
2022/06/17 05:08:27;;;;;;;6.10;2.58;;;;;;;23.20;43.36;102230.72;5072472;28;20107;-70
2022/06/17 05:11:00;;;;;;;6.57;2.80;;;;;;;23.19;43.32;102240.47;5071905;28;20106;-70
2022/06/17 05:13:35;;;;;;;5.07;2.40;;;;;;;23.19;43.07;102240.47;5072221;28;20032;-69
2022/06/17 05:16:05;;;;;;;4.15;2.70;;;;;;;23.18;43.17;102238.81;5072451;28;20468;-70
2022/06/17 05:18:31;;;;;;;6.55;2.88;;;;;;;23.19;43.38;102245.81;5071549;28;20040;-69
2022/06/17 05:20:59;;;;;;;5.35;2.80;;;;;;;23.18;43.05;102252.94;5072461;28;20054;-68
2022/06/17 05:23:24;;;;;;;5.45;2.80;;;;;;;23.18;43.15;102249.44;5072089;28;20085;-68
2022/06/17 05:25:50;;;;;;;5.65;2.70;;;;;;;23.17;43.45;102245.09;5071455;28;20021;-68
2022/06/17 05:28:20;;;;;;;5.00;2.70;;;;;;;23.17;42.98;102248.59;5073073;28;20106;-68
2022/06/17 05:31:00;;;;;;;7.07;2.60;;;;;;;23.17;43.12;102245.09;5076541;28;20074;-68
2022/06/17 05:33:25;;;;;;;6.32;2.83;;;;;;;23.17;43.32;102231.78;5075488;28;20035;-68
2022/06/17 05:35:51;;;;;;;5.47;2.80;;;;;;;23.17;43.38;102229.97;5076564;28;20025;-68
2022/06/17 05:38:16;;;;;;;6.30;2.97;;;;;;;23.16;43.35;102236.28;5075919;28;20024;-69
2022/06/17 05:40:43;;;;;;;6.85;2.70;;;;;;;23.17;43.35;102235.28;5075360;28;20099;-68
2022/06/17 05:43:10;;;;;;;4.97;2.38;;;;;;;23.18;43.32;102241.47;5076282;28;20025;-67
2022/06/17 05:45:35;;;;;;;6.43;2.30;;;;;;;23.17;43.34;102226.47;5076270;28;20318;-69
2022/06/17 05:48:03;;;;;;;5.40;2.50;;;;;;;23.18;43.19;102237.00;5075400;28;20065;-68
2022/06/17 05:50:29;;;;;;;4.72;2.65;;;;;;;23.18;43.65;102228.19;5075735;28;20035;-69
2022/06/17 05:53:01;;;;;;;5.32;2.60;;;;;;;23.17;43.50;102219.34;5075217;28;20021;-72
2022/06/17 05:55:29;;;;;;;4.55;2.63;;;;;;;23.17;43.37;102210.53;5075605;28;20024;-70
2022/06/17 05:57:54;;;;;;;6.55;2.60;;;;;;;23.18;43.14;102213.06;5076106;28;20046;-72
2022/06/17 06:00:20;;;;;;;4.57;2.13;;;;;;;23.19;43.41;102211.22;5074866;28;20115;-72
2022/06/17 06:02:48;;;;;;;5.60;2.55;;;;;;;23.17;43.46;102202.53;5075994;28;20092;-70
2022/06/17 06:05:17;;;;;;;5.70;2.67;;;;;;;23.18;43.18;102218.38;5075481;28;20096;-68
2022/06/17 06:07:42;;;;;;;5.05;2.42;;;;;;;23.18;43.34;102221.03;5074901;28;20033;-69
2022/06/17 06:10:09;;;;;;;4.50;2.53;;;;;;;23.18;43.07;102206.91;5075819;28;20028;-71
2022/06/17 06:15:19;;;;;;;5.00;2.50;;;;;;;23.18;43.35;102206.91;5074960;28;20478;-68
2022/06/17 06:17:45;;;;;;;5.45;2.78;;;;;;;23.19;43.25;102205.91;5075740;28;20021;-69
2022/06/17 06:20:11;;;;;;;6.68;2.65;;;;;;;23.19;43.15;102192.63;5075070;28;20456;-67
2022/06/17 06:22:36;;;;;;;5.47;2.28;;;;;;;23.17;42.99;102192.75;5074689;28;20029;-69
2022/06/17 06:25:02;;;;;;;5.00;2.30;;;;;;;23.18;43.39;102193.59;5075563;28;20025;-69
2022/06/17 06:27:27;;;;;;;4.82;2.67;;;;;;;23.17;42.93;102192.75;5074701;28;20292;-70
2022/06/17 06:29:53;;;;;;;4.43;2.30;;;;;;;23.18;43.11;102206.91;5074877;28;20027;-70
2022/06/17 06:32:18;;;;;;;4.20;2.40;;;;;;;23.17;42.78;102208.69;5075045;28;20479;-68
2022/06/17 06:34:43;;;;;;;6.32;2.60;;;;;;;23.18;43.28;102213.06;5075306;28;20275;-68
2022/06/17 06:37:09;;;;;;;4.97;2.50;;;;;;;23.18;43.12;102218.38;5074049;28;20016;-68
2022/06/17 06:39:34;;;;;;;4.95;2.92;;;;;;;23.18;43.15;102220.19;5074431;28;20273;-68
2022/06/17 06:41:59;;;;;;;4.90;2.50;;;;;;;23.17;42.96;102224.66;5075193;28;20032;-68
2022/06/17 06:44:25;;;;;;;5.25;2.30;;;;;;;23.18;42.93;102222.84;5074085;28;20682;-68
2022/06/17 06:46:50;;;;;;;4.97;2.43;;;;;;;23.18;42.94;102222.84;5075168;28;20024;-70
2022/06/17 06:49:15;;;;;;;4.87;2.60;;;;;;;23.18;43.01;102221.03;5074008;28;20272;-68
2022/06/17 06:51:40;;;;;;;4.47;2.77;;;;;;;23.18;43.59;102220.19;5074880;28;20844;-69
2022/06/17 06:54:06;;;;;;;4.47;2.10;;;;;;;23.18;43.18;102218.38;5074972;28;20269;-68
2022/06/17 06:56:31;;;;;;;4.18;2.45;;;;;;;23.19;43.38;102219.22;5073964;28;20276;-68
2022/06/17 06:58:59;;;;;;;5.13;2.58;;;;;;;23.18;43.13;102223.69;5074723;28;20024;-69
2022/06/17 07:01:25;;;;;;;4.43;2.40;;;;;;;23.19;43.10;102224.53;5074535;28;20477;-68
2022/06/17 07:03:50;;;;;;;5.43;2.38;;;;;;;23.19;42.66;102240.47;5074089;28;20100;-68
2022/06/17 07:06:15;;;;;;;4.60;2.30;;;;;;;23.20;43.14;102241.34;5074238;28;20483;-69
2022/06/17 07:08:44;;;;;;;5.03;2.25;;;;;;;23.21;43.20;102248.34;5074827;28;20276;-69
2022/06/17 07:11:09;;;;;;;4.15;2.15;;;;;;;23.21;43.04;102233.25;5073640;28;20028;-73
2022/06/17 07:13:35;;;;;;;4.43;2.30;;;;;;;23.23;43.32;102233.13;5075072;28;20040;-70
2022/06/17 07:16:06;;;;;;;4.20;2.28;;;;;;;23.22;43.36;102224.28;5074715;28;20419;-68
2022/06/17 07:18:34;;;;;;;4.18;1.98;;;;;;;23.22;43.28;102221.63;5073437;28;20101;-69
2022/06/17 07:21:02;;;;;;;4.38;2.20;;;;;;;23.22;43.23;102218.97;5074586;28;20103;-70
2022/06/17 07:23:34;;;;;;;4.65;2.17;;;;;;;23.23;43.21;102225.97;5074270;28;20021;-70
2022/06/17 07:26:02;;;;;;;4.68;2.50;;;;;;;23.23;43.37;102225.16;5073836;28;20063;-71
2022/06/17 07:28:28;;;;;;;4.03;2.33;;;;;;;23.24;43.12;102221.50;5073816;28;20046;-71
2022/06/17 07:30:55;;;;;;;3.90;2.38;;;;;;;23.24;43.29;102219.69;5074067;28;20032;-71
2022/06/17 07:33:22;;;;;;;4.18;2.20;;;;;;;23.25;43.30;102216.06;5073046;28;20021;-71
2022/06/17 07:35:49;;;;;;;4.75;2.17;;;;;;;23.25;42.97;102215.22;5074226;28;20016;-71
2022/06/17 07:41:05;;;;;;;3.97;2.10;;;;;;;23.27;43.08;102211.44;5074088;28;20097;-71
2022/06/17 07:43:31;;;;;;;4.03;2.15;;;;;;;23.26;43.09;102215.09;5073536;28;20532;-72
2022/06/17 07:45:56;;;;;;;4.22;2.10;;;;;;;23.27;43.22;102222.06;5072589;28;20060;-71
2022/06/17 07:48:22;;;;;;;5.07;2.38;;;;;;;23.27;43.25;102219.41;5073819;28;20370;-71
2022/06/17 07:50:48;;;;;;;5.65;2.40;;;;;;;23.29;43.54;102220.16;5072892;28;20526;-70
2022/06/17 07:53:14;;;;;;;4.00;1.95;;;;;;;23.27;43.38;102216.75;5073009;28;20023;-70
2022/06/17 07:55:41;;;;;;;4.35;2.05;;;;;;;23.30;42.83;102223.66;5073778;28;20020;-70
2022/06/17 07:58:12;;;;;;;3.70;1.90;;;;;;;23.29;42.93;102220.16;5073725;28;20099;-71
2022/06/17 08:00:46;;;;;;;4.57;2.40;;;;;;;23.30;43.21;102223.66;5073085;28;20028;-70
2022/06/17 08:03:14;;;;;;;3.80;2.05;;;;;;;23.31;43.31;102220.03;5073443;28;20099;-70
2022/06/17 08:05:46;;;;;;;3.80;2.00;;;;;;;23.32;43.32;102211.94;5073707;28;20082;-70
2022/06/17 08:08:13;;;;;;;4.32;2.00;;;;;;;23.32;43.11;102217.25;5072710;28;20024;-70
2022/06/17 08:10:38;;;;;;;4.13;2.17;;;;;;;23.33;42.99;102231.38;5073352;28;20333;-71
2022/06/17 08:13:06;;;;;;;3.72;2.00;;;;;;;23.33;42.92;102240.19;5073747;28;20426;-71
2022/06/17 08:15:32;;;;;;;4.28;2.00;;;;;;;23.32;42.86;102230.56;5072525;28;20101;-70
2022/06/17 08:17:58;;;;;;;3.22;1.73;;;;;;;23.34;43.23;102235.75;5073278;28;20033;-72
2022/06/17 08:20:30;;;;;;;3.72;1.92;;;;;;;23.34;42.92;102235.75;5072964;28;20029;-70
2022/06/17 08:22:56;;;;;;;4.07;1.98;;;;;;;23.34;43.05;102233.09;5072790;28;20024;-70
2022/06/17 08:25:21;;;;;;;4.15;1.80;;;;;;;23.35;43.17;102237.41;5072889;28;20032;-70
2022/06/17 08:27:49;;;;;;;3.70;1.85;;;;;;;23.35;43.19;102240.06;5072375;28;20450;-71
2022/06/17 08:30:18;;;;;;;3.80;1.90;;;;;;;23.36;43.03;102237.28;5072819;28;20024;-71
2022/06/17 08:32:46;;;;;;;3.65;1.80;;;;;;;23.36;43.31;102228.47;5073338;28;20097;-69
2022/06/17 08:35:12;;;;;;;4.32;1.98;;;;;;;23.38;43.13;102223.03;5072169;28;20046;-69
2022/06/17 08:37:38;;;;;;;3.63;2.00;;;;;;;23.37;43.24;102216.88;5073167;28;20556;-69
2022/06/17 08:40:35;;;;;;;3.42;1.80;;;;;;;23.38;43.28;102202.59;5073090;28;20052;-69
2022/06/17 08:43:28;;;;;;;5.25;1.85;;;;;;;23.39;42.89;102206.09;5044295;28;20040;-69
2022/06/17 08:46:18;;;;;;;2.95;1.70;;;;;;;23.39;43.48;102198.13;5072725;28;20033;-69
2022/06/17 08:48:58;;;;;;;3.55;1.90;;;;;;;23.40;43.07;102211.31;5072056;28;20024;-69
2022/06/17 08:51:51;;;;;;;3.75;1.98;;;;;;;23.40;43.15;102213.09;5072795;28;20430;-69
2022/06/17 08:54:45;;;;;;;4.13;1.90;;;;;;;23.40;43.12;102219.28;5072646;28;20499;-69
2022/06/17 08:57:20;;;;;;;3.55;1.67;;;;;;;23.40;43.27;102213.97;5072043;28;20032;-69
2022/06/17 09:00:00;;;;;;;4.78;1.90;;;;;;;23.41;43.13;102212.97;5072983;28;20028;-69
2022/06/17 09:03:20;;;;;;;3.75;1.90;;;;;;;23.43;43.26;102220.81;5072378;28;20023;-69
2022/06/17 09:06:06;;;;;;;3.85;1.80;;;;;;;23.43;43.24;102226.16;4991433;28;20497;-70
2022/06/17 09:08:53;;;;;;;4.47;1.73;;;;;;;23.43;43.07;102220.81;5066840;28;20044;-69
2022/06/17 09:11:21;;;;;;;3.47;1.92;;;;;;;23.44;42.95;102222.53;5071511;28;20487;-69
2022/06/17 09:14:00;;;;;;;3.83;1.85;;;;;;;23.43;43.33;102216.38;5072842;28;20025;-68
2022/06/17 09:16:32;;;;;;;4.28;2.13;;;;;;;23.44;43.34;102212.72;5072468;28;20028;-68
2022/06/17 09:19:03;;;;;;;4.55;1.98;;;;;;;23.44;42.93;102203.91;5072211;28;20086;-68
2022/06/17 09:21:46;;;;;;;3.25;1.98;;;;;;;23.44;43.37;102207.41;5072483;28;20557;-68
2022/06/17 09:24:18;;;;;;;4.03;1.90;;;;;;;23.45;43.43;102213.56;5071750;28;20044;-68
2022/06/17 09:27:04;;;;;;;3.72;1.70;;;;;;;23.45;43.23;102217.09;5072450;28;20107;-68
2022/06/17 09:29:33;;;;;;;4.30;1.80;;;;;;;23.46;42.98;102220.56;5072155;28;20024;-68
2022/06/17 09:32:08;;;;;;;3.72;1.83;;;;;;;23.47;43.19;102222.28;5071571;28;20033;-68
2022/06/17 09:34:40;;;;;;;3.90;1.90;;;;;;;23.46;43.03;102217.91;5072604;28;20031;-68
2022/06/17 09:37:24;;;;;;;4.13;1.90;;;;;;;23.47;43.47;102216.97;5072578;28;20021;-68
2022/06/17 09:39:59;;;;;;;3.53;1.70;;;;;;;23.47;43.23;102219.63;5071805;28;20048;-69
2022/06/17 09:42:46;;;;;;;2.70;1.45;;;;;;;23.48;42.97;102208.84;5072089;28;20043;-70
2022/06/17 09:45:14;;;;;;;4.13;1.80;;;;;;;23.48;42.93;102205.31;5071342;28;20442;-70
2022/06/17 09:47:50;;;;;;;3.70;1.73;;;;;;;23.49;43.36;102212.34;5072479;28;20032;-70
2022/06/17 09:50:26;;;;;;;3.60;1.65;;;;;;;23.50;43.00;102214.03;5072064;28;20059;-70
2022/06/17 09:53:01;;;;;;;3.70;1.95;;;;;;;23.50;42.92;102209.56;5071667;28;20522;-70
2022/06/17 09:55:37;;;;;;;3.78;1.90;;;;;;;23.50;43.36;102211.38;5072360;28;20029;-70
2022/06/17 09:58:06;;;;;;;3.25;1.80;;;;;;;23.50;43.10;102206.91;5072559;28;20413;-69
2022/06/17 10:00:53;;;;;;;3.22;2.00;;;;;;;23.51;43.13;102208.59;5071477;28;20395;-70
2022/06/17 10:03:30;;;;;;;4.35;1.70;;;;;;;23.51;42.96;102205.94;5071777;28;20422;-70
2022/06/17 10:06:22;;;;;;;4.32;1.80;;;;;;;23.52;42.87;102196.97;5072547;28;20051;-69
2022/06/17 10:09:25;;;;;;;2.85;1.67;;;;;;;23.52;43.23;102188.97;5068559;28;20036;-68
2022/06/17 10:12:00;;;;;;;4.07;2.30;;;;;;;23.53;43.15;102190.69;5072194;28;20036;-68
2022/06/17 10:14:44;;;;;;;2.95;1.65;;;;;;;23.53;43.14;102185.34;5072636;28;20025;-69
2022/06/17 10:20:47;;;;;;;4.18;1.70;;;;;;;23.54;43.29;102176.41;5074882;28;20348;-68
2022/06/17 10:23:38;;;;;;;3.60;1.80;;;;;;;23.56;43.08;102178.94;5075533;28;20606;-69
2022/06/17 10:26:18;;;;;;;2.92;1.70;;;;;;;23.55;43.27;102169.25;5074809;28;20028;-68
2022/06/17 10:29:02;;;;;;;3.40;1.73;;;;;;;23.56;42.87;102173.63;5074537;28;20537;-69
2022/06/17 10:31:44;;;;;;;3.70;1.80;;;;;;;23.56;42.72;102162.97;5075187;28;20591;-69
2022/06/17 10:34:27;;;;;;;3.28;1.70;;;;;;;23.56;43.29;102170.97;5074698;28;20028;-68
2022/06/17 10:36:59;;;;;;;4.38;1.58;;;;;;;23.57;42.85;102183.28;5075470;28;20024;-69
2022/06/17 10:39:27;;;;;;;3.97;1.85;;;;;;;23.58;42.73;102176.16;5075210;28;20032;-68
2022/06/17 10:41:52;;;;;;;4.05;1.67;;;;;;;23.59;42.86;102175.16;5074632;28;20021;-69
2022/06/17 10:44:30;;;;;;;3.13;1.67;;;;;;;23.60;42.61;102168.88;5074844;28;20035;-69
2022/06/17 10:47:17;;;;;;;2.80;1.55;;;;;;;23.60;42.47;102174.19;5075034;28;20105;-68
2022/06/17 10:49:53;;;;;;;4.13;1.50;;;;;;;23.60;42.58;102163.56;5074141;28;20464;-69
2022/06/17 10:52:22;;;;;;;2.80;1.40;;;;;;;23.60;42.90;102156.41;5074747;28;20024;-68
2022/06/17 10:54:51;;;;;;;3.53;1.50;;;;;;;23.61;42.93;102162.59;5075037;28;20020;-68
2022/06/17 10:57:28;;;;;;;2.67;1.50;;;;;;;23.62;42.42;102161.59;5073862;28;20028;-71
2022/06/17 10:59:54;;;;;;;3.65;1.55;;;;;;;23.61;42.63;102159.94;5075270;28;20048;-71
2022/06/17 11:02:24;;;;;;;3.65;1.80;;;;;;;23.62;42.85;102167.75;5074037;28;20380;-71
2022/06/17 11:04:54;;;;;;;2.80;1.42;;;;;;;23.63;42.68;102163.31;5074933;28;20029;-71
2022/06/17 11:07:48;;;;;;;3.95;1.40;;;;;;;23.63;42.87;102153.50;5074546;28;20108;-72
2022/06/17 11:10:13;;;;;;;2.88;1.60;;;;;;;23.65;42.81;102145.38;5073851;28;20074;-72
2022/06/17 11:12:46;;;;;;;3.23;1.60;;;;;;;23.65;42.77;102145.38;5074866;28;20040;-72
2022/06/17 11:15:26;;;;;;;3.97;1.60;;;;;;;23.65;42.61;102140.06;5074446;28;20388;-72
2022/06/17 11:17:58;;;;;;;4.07;1.45;;;;;;;23.65;42.80;102132.91;5073894;28;20388;-72
2022/06/17 11:20:28;;;;;;;4.32;1.50;;;;;;;23.66;42.68;102129.28;5074115;28;20024;-72
2022/06/17 11:23:15;;;;;;;4.00;1.70;;;;;;;23.67;42.88;102128.31;5074600;28;20024;-70
2022/06/17 11:25:46;;;;;;;3.30;1.73;;;;;;;23.68;42.68;102126.50;5073859;28;20373;-71
2022/06/17 11:28:18;;;;;;;3.97;1.50;;;;;;;23.68;42.72;102122.00;5073871;28;20051;-69
2022/06/17 11:30:58;;;;;;;2.72;1.60;;;;;;;23.69;42.48;102118.38;5073328;28;20486;-69
2022/06/17 11:33:30;;;;;;;3.85;1.70;;;;;;;23.69;42.47;102107.72;5074121;28;20037;-69
2022/06/17 11:36:09;;;;;;;3.53;1.55;;;;;;;23.70;42.66;102106.78;5074264;28;20028;-69
2022/06/17 11:38:35;;;;;;;3.00;1.50;;;;;;;23.71;42.48;102116.41;5073537;28;20063;-69
2022/06/17 11:41:01;;;;;;;5.20;1.70;;;;;;;23.72;42.70;102109.31;5074039;28;20060;-69
2022/06/17 11:43:35;;;;;;;3.03;1.50;;;;;;;23.72;42.91;102111.97;5073777;28;20082;-71
2022/06/17 11:46:21;;;;;;;5.18;1.73;;;;;;;23.73;42.88;102110.97;5073627;28;20020;-69
2022/06/17 11:48:56;;;;;;;3.50;1.60;;;;;;;23.73;42.66;102109.16;5074085;28;20086;-70
2022/06/17 11:51:26;;;;;;;5.03;1.83;;;;;;;23.75;42.64;102101.06;5073648;28;20032;-69
2022/06/17 11:53:57;;;;;;;10.73;1.80;;;;;;;23.76;42.74;102101.88;5073069;28;20035;-69
2022/06/17 11:56:35;;;;;;;9.02;1.88;;;;;;;23.76;42.96;102081.44;5073724;28;20399;-69
2022/06/17 11:59:25;;;;;;;5.78;2.10;;;;;;;23.77;42.69;102082.28;5073147;28;20024;-70